Latest Weather Observations for Naracoorte

IDS60801

Issued at 5:35 pm CST Wednesday 1 October 2014 (issued every 30 minutes, with the page automatically refreshed every 10 minutes)

About weather observations | Map of weather stations | Latest weather observations for SA | Other Formats
Station Details ID: 026099 Name: NARACOORTE AERODROME Lat: -36.98 Lon: 140.73 Height: 49.72 m
Data from the previous 72 hours. | See also: Recent months at Naracoorte
Date/Time
CST
Temp
°C
App
Temp
°C
Dew
Point
Rel
Hum
%
Delta-T
°C
Wind Press
QNH
hPa
Press
MSL
hPa
Rain
since 9 am
mm
Dir
 
Spd
km/h
Gust
km/h
Spd
kts
Gust
kts
01/05:30pm 13.5 8.2 6.8 64 3.2 WSW 24 28 13 15 1026.6 1026.6 0.0
01/05:00pm 14.3 8.9 6.4 59 3.8 WSW 24 32 13 17 1026.5 1026.5 0.0
01/04:30pm 14.4 9.9 6.3 58 3.9 SW 19 28 10 15 1026.2 1026.2 0.0
01/04:00pm 15.4 10.1 4.8 49 5.0 WSW 22 30 12 16 1026.2 1026.2 0.0
01/03:30pm 15.2 11.1 4.3 48 5.0 SW 15 20 8 11 1026.2 1026.2 0.0
01/03:00pm 16.0 10.3 5.0 48 5.2 WSW 24 32 13 17 1026.1 1026.1 0.0
01/02:30pm 17.0 11.0 3.3 40 6.3 WSW 24 33 13 18 1026.4 1026.4 0.0
01/02:00pm 16.3 10.0 4.0 44 5.7 WSW 26 35 14 19 1026.6 1026.6 0.0
01/01:30pm 16.2 10.5 2.9 41 6.0 WSW 22 32 12 17 1026.5 1026.5 0.0
01/01:00pm 16.4 11.1 2.8 40 6.2 WSW 20 30 11 16 1026.5 1026.5 0.0
01/12:30pm 15.1 10.0 3.0 44 5.4 WSW 19 30 10 16 1026.7 1026.7 0.0
01/12:00pm 15.2 9.5 2.7 43 5.6 WSW 22 32 12 17 1026.8 1026.8 0.0
01/11:30am 15.8 11.1 3.3 43 5.7 S 17 28 9 15 1026.9 1026.9 0.0
01/11:00am 14.4 9.2 3.8 49 4.8 SSW 20 33 11 18 1027.1 1027.1 0.0
01/10:30am 15.0 9.8 3.5 46 5.2 SSW 20 28 11 15 1027.2 1027.2 0.0
01/10:00am 14.4 8.4 3.5 48 4.9 WSW 24 30 13 16 1027.3 1027.3 0.0
01/09:30am 13.7 8.1 5.3 57 3.9 SSW 24 32 13 17 1027.2 1027.2 0.0
01/09:00am 12.7 8.4 7.0 68 2.7 SSW 19 28 10 15 1026.9 1026.9 1.8
01/08:30am 10.7 8.6 6.5 75 2.0 W 7 15 4 8 1026.6 1026.6 1.8
01/08:00am 9.3 7.3 6.2 81 1.4 WNW 6 9 3 5 1026.0 1026.0 1.8
01/07:30am 7.8 5.4 5.3 84 1.1 WNW 7 11 4 6 1025.6 1025.6 1.8
01/07:00am 5.8 3.4 4.1 89 0.7 NNW 6 9 3 5 1025.3 1025.3 1.8
01/06:30am 4.6 2.1 3.6 93 0.4 NNW 6 9 3 5 1024.8 1024.8 1.8
01/06:00am 3.2 0.2 2.3 94 0.4 N 7 9 4 5 1024.4 1024.4 1.8
01/05:30am 4.2 1.4 3.3 94 0.4 NNW 7 9 4 5 1023.8 1023.8 1.8
01/05:00am 3.5 0.6 2.8 95 0.3 NW 7 9 4 5 1023.4 1023.4 1.8
01/04:30am 2.6 -0.8 2.0 96 0.2 N 9 9 5 5 1022.8 1022.8 1.6
01/04:00am 3.1 0.2 2.4 95 0.3 NW 7 9 4 5 1022.4 1022.4 1.6
01/03:30am 3.0 -0.3 2.4 96 0.2 NW 9 13 5 7 1022.1 1022.1 1.6
01/03:00am 3.0 0.6 2.4 96 0.2 WNW 4 7 2 4 1022.0 1022.0 1.6
01/02:30am 3.7 0.9 3.1 96 0.2 NW 7 9 4 5 1021.6 1021.6 1.6
01/02:00am 2.9 -0.8 2.5 97 0.2 W 11 13 6 7 1021.4 1021.4 1.6
01/01:30am 3.1 -1.0 2.5 96 0.2 W 13 13 7 7 1021.3 1021.3 1.6
01/01:00am 2.8 -0.9 2.1 95 0.3 WSW 11 13 6 7 1021.2 1021.2 1.6
01/12:30am 3.8 -0.2 2.9 94 0.4 SW 13 15 7 8 1021.1 1021.1 1.6
01/12:00am 4.8 1.8 3.9 94 0.4 W 9 17 5 9 1021.1 1021.1 1.6
 
Date/Time
CST
Temp
°C
App
Temp
°C
Dew
Point
Rel
Hum
%
Delta-T
°C
Wind Press
QNH
hPa
Press
MSL
hPa
Rain
since 9 am
mm
Dir
 
Spd
km/h
Gust
km/h
Spd
kts
Gust
kts
30/11:30pm 5.3 2.3 4.3 93 0.4 W 9 11 5 6 1020.5 1020.5 1.6
30/11:00pm 6.3 2.7 4.8 90 0.7 W 13 20 7 11 1020.5 1020.5 1.6
30/10:30pm 5.7 2.0 4.3 91 0.6 NW 13 17 7 9 1019.8 1019.8 1.6
30/10:00pm 6.2 2.2 4.7 90 0.7 NW 15 19 8 10 1019.5 1019.5 1.6
30/09:30pm 5.4 1.3 4.1 91 0.5 W 15 19 8 10 1019.0 1019.0 1.6
30/09:00pm 5.3 1.9 4.0 91 0.5 W 11 13 6 7 1018.6 1018.6 1.4
30/08:30pm 6.7 2.7 4.7 87 0.9 W 15 17 8 9 1018.2 1018.2 1.4
30/08:00pm 6.5 2.9 4.8 89 0.7 W 13 13 7 7 1017.8 1017.8 1.4
30/07:30pm 7.4 3.4 5.0 85 1.1 W 15 20 8 11 1017.3 1017.3 1.4
30/07:00pm 8.3 3.6 5.2 81 1.4 W 19 24 10 13 1016.6 1016.7 1.4
30/06:30pm 9.3 4.2 6.2 81 1.4 W 22 28 12 15 1016.2 1016.3 1.4
30/06:00pm 8.9 3.9 6.3 84 1.2 WSW 22 30 12 16 1015.7 1015.8 1.4
30/05:30pm 9.1 2.5 6.2 82 1.3 WSW 30 39 16 21 1015.5 1015.6 1.4
30/05:00pm 8.8 0.2 6.6 86 1.0 SW 41 54 22 29 1015.0 1015.1 1.4
30/04:59pm 8.8 -0.2 6.2 84 1.2 SW 43 54 23 29 1015.0 1015.1 1.4
30/04:55pm 9.7 -2.8 5.9 77 1.7 SW 61 80 33 43 1014.7 1014.8 1.2
30/04:54pm 10.7 2.0 5.9 72 2.2 WSW 41 80 22 43 1014.6 1014.7 1.2
30/04:30pm 13.2 4.6 4.9 57 3.8 WSW 39 50 21 27 1013.8 1013.9 1.2
30/04:00pm 14.5 4.7 3.3 47 5.1 WSW 44 56 24 30 1013.2 1013.3 1.2
30/03:30pm 14.3 3.6 4.6 52 4.5 WSW 50 63 27 34 1012.8 1012.9 1.2
30/03:20pm 14.7 3.9 4.1 49 4.9 W 50 69 27 37 1012.5 1012.5 1.2
30/03:00pm 15.1 4.1 4.8 50 4.8 WSW 52 65 28 35 1012.1 1012.1 1.2
30/02:30pm 14.3 3.5 5.9 57 4.0 W 52 69 28 37 1011.7 1011.7 1.2
30/02:10pm 14.5 4.4 5.6 55 4.2 W 48 67 26 36 1011.4 1011.4 1.2
30/02:00pm 14.0 3.7 6.4 60 3.7 W 50 63 27 34 1010.9 1010.9 1.2
30/01:45pm 14.7 7.7 9.9 73 2.5 W 37 57 20 31 1010.9 1010.9 1.2
30/01:30pm 12.9 6.8 10.6 86 1.2 WSW 33 44 18 24 1010.7 1010.7 1.2
30/01:24pm 12.1 5.1 9.8 86 1.2 SW 37 44 20 24 1010.6 1010.6 1.2
30/01:00pm 13.8 6.0 9.6 76 2.2 W 41 59 22 32 1010.5 1010.5 1.2
30/12:59pm 13.7 6.2 9.4 75 2.2 W 39 59 21 32 1010.5 1010.5 1.2
30/12:30pm 11.9 4.3 10.5 91 0.7 WSW 41 56 22 30 1010.1 1010.1 1.0
30/12:14pm 11.2 3.1 9.9 92 0.7 WSW 43 52 23 28 1010.1 1010.1 1.0
30/12:08pm 11.4 -0.7 9.3 87 1.1 WSW 63 83 34 45 1009.7 1009.7 0.8
30/12:07pm 11.4 -2.0 8.6 83 1.4 WSW 69 83 37 45 1009.5 1009.5 0.6
30/12:06pm 12.4 3.9 9.1 80 1.7 W 44 80 24 43 1009.7 1009.7 0.6
30/12:00pm 14.0 7.1 11.5 85 1.3 W 39 52 21 28 1009.4 1009.4 0.6
30/11:59am 14.0 7.4 11.3 84 1.4 W 37 44 20 24 1009.4 1009.4 0.6
30/11:33am 12.2 1.6 10.6 90 0.8 W 57 76 31 41 1009.3 1009.3 0.4
30/11:30am 12.0 0.1 9.9 87 1.1 W 63 76 34 41 1009.3 1009.3 0.4
30/11:28am 12.2 -0.1 9.9 86 1.2 W 65 76 35 41 1008.9 1008.9 0.2
30/11:14am 15.9 5.7 11.5 75 2.4 WNW 56 74 30 40 1008.2 1008.2 0.0
30/11:00am 18.5 7.9 9.8 57 4.6 WNW 56 69 30 37 1007.9 1007.9 0.0
30/10:52am 18.3 8.6 9.1 55 4.8 WNW 50 69 27 37 1007.8 1007.8 0.0
30/10:30am 18.8 9.4 10.1 57 4.7 WNW 50 67 27 36 1008.1 1008.1 0.0
30/10:17am 18.3 9.4 9.1 55 4.8 WNW 46 74 25 40 1008.3 1008.3 0.0
30/10:00am 18.5 9.9 11.8 65 3.7 WNW 48 65 26 35 1008.4 1008.4 0.0
30/09:31am 17.1 10.1 11.4 69 3.1 NW 39 57 21 31 1008.8 1008.8 0.0
30/09:30am 17.1 9.7 11.2 68 3.2 WNW 41 57 22 31 1008.9 1008.9 0.0
30/09:24am 17.3 10.4 11.6 69 3.1 NW 39 57 21 31 1008.9 1008.9 0.0
30/09:00am 16.5 9.3 10.4 67 3.2 NW 39 54 21 29 1009.0 1009.0 0.0
30/08:54am 16.5 10.5 10.8 69 3.0 NW 33 52 18 28 1009.1 1009.1 0.0
30/08:30am 15.0 8.5 10.2 73 2.5 NW 35 46 19 25 1009.0 1009.0 0.0
30/08:00am 14.8 9.4 11.0 78 2.0 NW 30 41 16 22 1009.4 1009.4 0.0
30/07:30am 13.6 9.0 11.1 85 1.3 NNW 26 37 14 20 1009.2 1009.2 0.0
30/07:00am 12.4 8.0 10.5 88 1.0 NNW 24 33 13 18 1009.0 1009.0 0.0
30/06:30am 11.5 8.0 10.1 91 0.7 N 19 26 10 14 1009.1 1009.1 0.0
30/06:00am 11.1 7.5 10.0 93 0.6 N 19 24 10 13 1008.9 1008.9 0.0
30/05:30am 11.4 7.9 10.1 92 0.7 N 19 26 10 14 1009.0 1009.0 0.0
30/05:00am 12.0 8.5 10.9 93 0.6 NNW 20 28 11 15 1009.1 1009.1 0.0
30/04:30am 12.0 8.7 10.9 93 0.6 N 19 26 10 14 1009.2 1009.2 0.0
30/04:00am 11.4 7.8 10.5 94 0.5 NNW 20 26 11 14 1009.4 1009.4 0.0
30/03:30am 11.5 8.1 10.4 93 0.6 NNW 19 24 10 13 1009.7 1009.7 0.0
30/03:00am 11.4 7.8 10.5 94 0.5 N 20 30 11 16 1009.9 1009.9 0.0
30/02:30am 11.2 7.5 10.1 93 0.6 NNW 20 28 11 15 1010.2 1010.2 0.0
30/02:00am 11.4 7.7 10.1 92 0.7 NNW 20 28 11 15 1010.5 1010.5 0.0
30/01:30am 11.3 7.6 10.0 92 0.7 NNW 20 26 11 14 1010.9 1010.9 0.0
30/01:00am 11.0 7.4 9.8 92 0.6 NNW 19 24 10 13 1011.5 1011.5 0.0
30/12:30am 11.3 8.1 10.0 92 0.7 NNW 17 22 9 12 1011.8 1011.8 0.0
30/12:00am 10.7 7.4 9.6 93 0.6 N 17 19 9 10 1011.9 1011.9 0.0
 
Date/Time
CST
Temp
°C
App
Temp
°C
Dew
Point
Rel
Hum
%
Delta-T
°C
Wind Press
QNH
hPa
Press
MSL
hPa
Rain
since 9 am
mm
Dir
 
Spd
km/h
Gust
km/h
Spd
kts
Gust
kts
29/11:30pm 10.7 8.1 9.5 92 0.6 N 13 17 7 9 1012.1 1012.1 0.0
29/11:00pm 11.8 8.9 9.7 87 1.1 NW 15 17 8 9 1012.6 1012.6 0.0
29/10:30pm 12.0 8.7 9.6 85 1.2 NW 17 22 9 12 1012.8 1012.9 0.0
29/10:00pm 11.8 9.1 9.0 83 1.4 NNW 13 19 7 10 1012.7 1012.7 0.0
29/09:30pm 11.4 8.6 8.6 83 1.4 NNW 13 17 7 9 1012.7 1012.7 0.0
29/09:00pm 11.3 8.5 8.5 83 1.4 N 13 15 7 8 1012.5 1012.5 0.0
29/08:30pm 11.3 8.4 8.2 81 1.5 NNW 13 15 7 8 1012.7 1012.7 0.0
29/08:00pm 12.4 9.6 8.7 78 1.8 NNW 13 15 7 8 1012.7 1012.7 0.0
29/07:30pm 12.7 10.3 8.8 77 2.0 NNW 11 13 6 7 1012.6 1012.6 0.0
29/07:00pm 12.8 10.5 9.1 78 1.9 NW 11 15 6 8 1012.4 1012.4 0.0
29/06:30pm 13.8 10.4 9.0 73 2.4 WNW 17 22 9 12 1012.4 1012.4 0.0
29/06:00pm 15.0 10.7 9.4 69 2.9 WNW 22 26 12 14 1012.2 1012.2 0.0
29/05:30pm 16.5 11.5 9.4 63 3.7 WNW 26 32 14 17 1012.0 1012.0 0.0
29/05:00pm 17.5 12.2 9.7 60 4.1 WNW 28 33 15 18 1011.8 1011.8 0.0
29/04:30pm 18.4 13.1 9.7 57 4.6 WNW 28 37 15 20 1011.8 1011.8 0.0
29/04:00pm 19.1 13.7 9.6 54 5.0 WNW 28 37 15 20 1011.8 1011.8 0.0
29/03:30pm 19.6 13.7 8.9 50 5.6 WNW 30 41 16 22 1011.8 1011.8 0.0
29/03:00pm 19.6 14.1 9.2 51 5.5 NW 28 37 15 20 1011.9 1011.9 0.0
29/02:30pm 19.5 13.1 8.5 49 5.7 NW 32 39 17 21 1012.2 1012.2 0.0
29/02:00pm 19.3 12.8 8.3 49 5.7 NW 32 44 17 24 1012.5 1012.5 0.0
29/01:30pm 20.2 13.6 7.9 45 6.4 NW 32 43 17 23 1012.8 1012.9 0.0
29/01:00pm 20.0 14.3 8.4 47 6.1 NW 28 37 15 20 1012.9 1013.0 0.0
29/12:31pm 20.1 14.5 8.8 48 5.9 NW 28 46 15 25 1013.2 1013.3 0.0
29/12:30pm 19.5 14.0 9.1 51 5.5 NW 28 41 15 22 1013.3 1013.4 0.0
29/12:00pm 18.4 12.9 9.2 55 4.8 NNW 28 35 15 19 1013.3 1013.4 0.0
29/11:30am 18.4 12.6 9.5 56 4.7 WNW 30 37 16 20 1013.6 1013.7 0.0
29/11:00am 18.3 13.1 8.8 54 4.9 NW 26 39 14 21 1013.7 1013.8 0.0
29/10:30am 18.0 12.1 7.7 51 5.2 NW 28 37 15 20 1013.9 1014.0 0.0
29/10:00am 16.4 12.6 9.1 62 3.8 WNW 19 28 10 15 1014.1 1014.2 0.0
29/09:30am 16.4 12.3 10.0 66 3.4 W 22 32 12 17 1014.3 1014.4 0.0
29/09:00am 15.9 12.7 9.8 67 3.2 W 17 26 9 14 1014.5 1014.6 0.0
29/08:30am 15.4 12.4 10.8 74 2.4 WNW 17 22 9 12 1014.3 1014.4 0.0
29/08:00am 14.3 11.4 11.1 81 1.7 NW 17 20 9 11 1014.0 1014.1 0.0
29/07:30am 12.7 10.4 10.6 87 1.1 NNW 13 19 7 10 1013.7 1013.8 0.0
29/07:00am 11.1 8.6 9.7 91 0.7 N 13 15 7 8 1013.5 1013.6 0.0
29/06:30am 9.9 7.3 9.3 96 0.3 N 13 15 7 8 1013.4 1013.5 0.0
29/06:00am 9.2 6.4 8.4 95 0.4 N 13 17 7 9 1013.0 1013.1 0.0
29/05:30am 9.8 7.1 8.9 94 0.4 NW 13 15 7 8 1012.7 1012.7 0.0
29/05:00am 9.2 6.7 8.1 93 0.5 WNW 11 13 6 7 1012.3 1012.3 0.0
29/04:30am 10.0 8.1 8.9 93 0.5 WNW 9 13 5 7 1012.2 1012.2 0.0
29/04:00am 11.7 9.0 10.4 92 0.7 WNW 15 17 8 9 1011.9 1011.9 0.0
29/03:30am 11.0 9.4 10.1 94 0.5 WNW 9 11 5 6 1011.8 1011.8 0.0
29/03:00am 11.5 9.5 10.1 91 0.7 WNW 11 15 6 8 1011.6 1011.6 0.0
29/02:30am 11.6 8.9 10.2 91 0.7 WNW 15 19 8 10 1011.5 1011.5 0.0
29/02:00am 11.8 8.1 10.0 89 0.9 WNW 20 24 11 13 1011.7 1011.7 0.0
29/01:30am 12.2 8.2 10.4 89 0.9 WNW 22 28 12 15 1011.6 1011.6 0.0
29/01:00am 12.8 8.1 10.7 87 1.1 W 26 37 14 20 1011.6 1011.6 0.0
29/12:30am 12.6 7.5 10.7 88 1.0 W 28 37 15 20 1011.5 1011.5 0.0
29/12:00am 11.4 7.9 10.3 93 0.6 WNW 19 22 10 12 1011.4 1011.4 0.0
 
Date/Time
CST
Temp
°C
App
Temp
°C
Dew
Point
Rel
Hum
%
Delta-T
°C
Wind Press
QNH
hPa
Press
MSL
hPa
Rain
since 9 am
mm
Dir
 
Spd
km/h
Gust
km/h
Spd
kts
Gust
kts
28/11:30pm 10.0 7.7 9.1 94 0.4 NNW 11 15 6 8 1011.1 1011.1 0.0
28/11:00pm 10.4 7.8 9.2 92 0.6 NNW 13 19 7 10 1011.2 1011.2 0.0
28/10:30pm 10.9 8.3 9.3 90 0.8 NNW 13 19 7 10 1011.1 1011.1 0.0
28/10:00pm 11.2 7.9 9.6 90 0.8 NW 17 20 9 11 1010.8 1010.8 0.0
28/09:30pm 11.4 8.1 9.5 88 1.0 NW 17 20 9 11 1010.7 1010.7 0.0
28/09:00pm 11.7 8.4 9.4 86 1.2 NW 17 22 9 12 1010.4 1010.4 0.0
28/08:30pm 11.6 8.2 9.2 85 1.2 NW 17 20 9 11 1010.2 1010.2 0.0
28/08:00pm 11.1 8.0 8.7 85 1.2 WNW 15 19 8 10 1009.6 1009.6 0.0
28/07:30pm 11.1 7.5 8.5 84 1.3 WNW 17 20 9 11 1009.1 1009.1 0.0
28/07:00pm 12.3 8.3 8.4 77 1.9 W 19 24 10 13 1008.4 1008.4 0.0
28/06:30pm 12.2 9.0 9.9 86 1.2 W 17 20 9 11 1008.0 1008.0 0.0
28/06:00pm 13.8 11.2 10.6 81 1.7 WSW 15 17 8 9 1007.6 1007.6 0.0

Other Formats:

Comma delimited format used in spreadsheet applications
http://www.bom.gov.au/fwo/IDS60801/IDS60801.94820.axf

JavaScript Object Notation format (JSON) in row-major order
http://www.bom.gov.au/fwo/IDS60801/IDS60801.94820.json